TimeEDT,TemperatureF,Dew PointF,Humidity,Sea Level PressureIn,VisibilityMPH,Wind Direction,Wind SpeedMPH,Gust SpeedMPH,PrecipitationIn,Events,Conditions,WindDirDegrees,DateUTC
12:54 AM,37.9,35.1,89,29.76,10.0,WNW,19.6,28.8,N/A,,Overcast,300,2013-05-26 04:54:00
1:54 AM,36.0,35.1,97,29.75,10.0,WNW,18.4,26.5,0.01,Rain,Light Rain,290,2013-05-26 05:54:00
2:14 AM,37.0,35.1,93,29.73,8.0,WNW,16.1,-,0.00,Rain,Light Rain,290,2013-05-26 06:14:00
2:54 AM,37.0,35.1,93,29.75,6.0,WNW,19.6,29.9,0.00,Rain,Light Rain,290,2013-05-26 06:54:00
3:05 AM,37.0,35.1,93,29.72,7.0,WNW,18.4,28.8,0.00,Rain,Light Rain,300,2013-05-26 07:05:00
3:43 AM,37.9,36.0,93,29.72,10.0,WNW,20.7,29.9,0.00,,Overcast,300,2013-05-26 07:43:00
3:54 AM,37.9,36.0,93,29.74,10.0,WNW,18.4,31.1,0.00,,Overcast,300,2013-05-26 07:54:00
4:23 AM,37.9,35.1,89,29.72,10.0,WNW,23.0,33.4,N/A,,Overcast,300,2013-05-26 08:23:00
4:41 AM,39.0,35.1,86,29.73,10.0,WNW,18.4,29.9,N/A,,Overcast,300,2013-05-26 08:41:00
4:54 AM,39.0,35.1,86,29.75,10.0,NW,17.3,31.1,N/A,,Overcast,310,2013-05-26 08:54:00
5:54 AM,39.0,36.0,89,29.78,10.0,WNW,15.0,26.5,N/A,,Overcast,300,2013-05-26 09:54:00
6:54 AM,41.0,37.0,86,29.80,10.0,WNW,19.6,26.5,N/A,,Overcast,300,2013-05-26 10:54:00
7:54 AM,42.1,36.0,79,29.81,10.0,WNW,18.4,36.8,N/A,,Mostly Cloudy,300,2013-05-26 11:54:00
8:54 AM,45.0,36.0,71,29.83,10.0,WNW,20.7,29.9,N/A,,Mostly Cloudy,300,2013-05-26 12:54:00
9:01 AM,46.0,36.0,68,29.81,10.0,WNW,23.0,32.2,N/A,,Mostly Cloudy,300,2013-05-26 13:01:00
9:10 AM,46.9,37.0,68,29.81,10.0,NW,21.9,34.5,N/A,,Scattered Clouds,310,2013-05-26 13:10:00
9:54 AM,46.9,36.0,66,29.85,10.0,WNW,29.9,41.4,N/A,,Overcast,300,2013-05-26 13:54:00
10:54 AM,48.0,35.1,61,29.86,10.0,NW,17.3,26.5,N/A,,Overcast,320,2013-05-26 14:54:00
11:54 AM,51.1,36.0,56,29.89,10.0,West,18.4,28.8,N/A,,Overcast,280,2013-05-26 15:54:00
12:54 PM,52.0,34.0,50,29.90,10.0,NW,26.5,38.0,0.00,,Overcast,320,2013-05-26 16:54:00
1:54 PM,52.0,35.1,53,29.92,10.0,NW,18.4,28.8,N/A,,Overcast,310,2013-05-26 17:54:00
2:54 PM,53.1,35.1,50,29.94,10.0,NW,21.9,34.5,N/A,,Overcast,310,2013-05-26 18:54:00
3:54 PM,50.0,39.0,66,29.96,10.0,WNW,17.3,-,0.00,Rain,Light Rain,300,2013-05-26 19:54:00
4:54 PM,52.0,37.9,59,29.98,10.0,WNW,19.6,26.5,0.00,,Scattered Clouds,290,2013-05-26 20:54:00
5:54 PM,51.1,39.0,63,30.01,10.0,NW,18.4,25.3,0.01,,Mostly Cloudy,310,2013-05-26 21:54:00
6:54 PM,51.1,36.0,56,30.03,10.0,NW,19.6,28.8,N/A,,Scattered Clouds,320,2013-05-26 22:54:00
7:54 PM,48.0,37.0,66,30.06,10.0,WNW,19.6,28.8,N/A,,Clear,300,2013-05-26 23:54:00
8:54 PM,46.9,37.0,68,30.08,10.0,WNW,15.0,-,N/A,,Clear,300,2013-05-27 00:54:00
9:54 PM,45.0,37.0,74,30.10,10.0,WNW,9.2,-,N/A,,Clear,300,2013-05-27 01:54:00
10:54 PM,43.0,37.0,80,30.11,10.0,WNW,9.2,-,N/A,,Clear,290,2013-05-27 02:54:00
11:54 PM,42.1,37.0,82,30.13,10.0,West,10.4,-,N/A,,Clear,260,2013-05-27 03:54:00